Latest Weather Observations for Camden

IDN60901

Issued at 1:51 pm EDT Tuesday 30 November 2021 (issued every 10 minutes, with the page automatically refreshed every 10 minutes)

About weather observations | Map of Sydney area stations | Latest observations for Sydney area | Other Formats
Station Details ID: 068192 Name: CAMDEN AIRPORT AWS Lat: -34.04 Lon: 150.69 Height: 73.9 m
Data from the previous 72 hours. | See also: Recent months at Camden
Date/Time
EDT
Temp
°C
App
Temp
°C
Dew
Point
°C
Rel
Hum
%
Delta-T
°C
Wind Press
QNH
hPa
Press
MSL
hPa
Rain since
9am
mm
Dir  Spd
km/h
Gust
km/h
Spd
kts
Gust
kts
30/01:30pm 23.0 23.0 15.1 61 4.7 ENE 9 17 5 9 1016.9 1016.6 0.0
30/01:00pm 23.2 23.6 15.3 61 4.7 ENE 7 17 4 9 1016.7 1016.4 0.0
30/12:30pm 23.2 22.9 15.5 62 4.6 NE 11 20 6 11 1017.3 1017.1 0.0
30/12:00pm 23.3 24.5 15.9 63 4.5 NNE 4 11 2 6 1017.7 1017.5 0.0
30/11:30am 21.8 22.8 14.2 62 4.4 N 2 9 1 5 1018.2 1018.0 0.0
30/11:27am 21.7 21.9 14.1 62 4.4 NNE 6 17 3 9 1018.3 1018.1 0.0
30/11:08am 21.8 21.8 14.2 62 4.4 NNW 7 13 4 7 1018.5 1018.3 0.0
30/11:00am 22.1 22.5 14.7 63 4.4 NE 6 11 3 6 1018.5 1018.3 0.0
30/10:30am 20.8 21.6 14.9 69 3.5 NW 4 9 2 5 1018.6 1018.4 0.0
30/10:00am 20.2 21.9 15.2 73 3.0 CALM 0 0 0 0 1018.8 1018.6 0.0
30/09:30am 19.3 19.5 14.1 72 3.0 ENE 6 11 3 6 1019.0 1018.8 0.0
30/09:00am 18.7 19.3 14.2 75 2.6 SE 4 7 2 4 1018.9 1018.7 0.0
30/08:30am 18.2 19.5 14.1 77 2.4 CALM 0 0 0 0 1018.9 1018.7 0.0
30/08:00am 17.8 18.9 14.5 81 1.9 SSE 2 9 1 5 1018.8 1018.6 0.0
30/07:30am 17.1 18.5 14.4 84 1.6 CALM 0 0 0 0 1018.4 1018.2 0.0
30/07:00am 16.8 18.0 13.9 83 1.6 CALM 0 0 0 0 1018.2 1018.0 0.0
30/06:30am 16.7 18.0 14.2 85 1.4 CALM 0 0 0 0 1018.3 1018.1 0.0
30/06:00am 16.5 17.8 14.2 86 1.3 CALM 0 0 0 0 1018.0 1017.8 0.0
30/05:30am 16.4 17.7 14.1 86 1.3 CALM 0 0 0 0 1017.8 1017.6 0.0
30/05:00am 16.5 17.8 14.2 86 1.3 CALM 0 0 0 0 1017.6 1017.4 0.0
30/04:30am 16.4 17.7 14.1 86 1.3 CALM 0 0 0 0 1017.5 1017.3 0.0
30/04:00am 16.6 17.9 14.1 85 1.4 CALM 0 0 0 0 1017.8 1017.6 0.0
30/03:30am 16.6 17.8 13.9 84 1.5 CALM 0 0 0 0 1017.9 1017.7 0.0
30/03:00am 16.6 17.8 13.7 83 1.6 CALM 0 0 0 0 1018.0 1017.8 0.0
30/02:30am 16.5 17.6 13.6 83 1.6 CALM 0 0 0 0 1018.1 1017.9 0.0
30/02:00am 16.5 17.7 13.8 84 1.5 CALM 0 0 0 0 1018.2 1018.0 0.0
30/01:30am 16.7 17.8 13.4 81 1.9 CALM 0 0 0 0 1018.5 1018.3 0.0
30/01:00am 16.7 16.6 13.2 80 2.0 S 6 9 3 5 1018.6 1018.4 0.0
30/12:30am 16.8 17.8 13.1 79 2.1 CALM 0 0 0 0 1018.9 1018.7 0.0
30/12:00am 16.9 17.1 13.2 79 2.1 WSW 4 7 2 4 1018.9 1018.7 0.0
 
Date/Time
EDT
Temp
°C
App
Temp
°C
Dew
Point
°C
Rel
Hum
%
Delta-T
°C
Wind Press
QNH
hPa
Press
MSL
hPa
Rain since
9am
mm
Dir  Spd
km/h
Gust
km/h
Spd
kts
Gust
kts
29/11:30pm 16.9 17.8 13.0 78 2.2 CALM 0 0 0 0 1019.2 1019.0 0.0
29/11:00pm 16.9 17.8 12.8 77 2.3 CALM 0 0 0 0 1018.9 1018.7 0.0
29/10:30pm 16.9 17.7 12.6 76 2.4 CALM 0 0 0 0 1019.0 1018.8 0.0
29/10:00pm 16.9 17.8 12.8 77 2.3 CALM 0 0 0 0 1018.9 1018.7 0.0
29/09:30pm 17.1 17.6 12.8 76 2.4 SSW 2 7 1 4 1018.8 1018.6 0.0
29/09:00pm 17.3 16.9 12.4 73 2.7 S 6 9 3 5 1018.6 1018.4 0.0
29/08:30pm 17.1 16.9 11.8 71 2.9 ESE 4 9 2 5 1018.5 1018.3 0.0
29/08:00pm 17.6 17.0 11.6 68 3.3 ESE 6 9 3 5 1018.2 1018.0 0.0
29/07:30pm 18.3 16.7 11.6 65 3.7 ESE 11 17 6 9 1017.9 1017.7 0.0
29/07:00pm 18.6 17.8 11.7 64 3.8 ESE 7 13 4 7 1017.7 1017.5 0.0
29/06:30pm 19.1 17.2 11.7 62 4.1 E 13 17 7 9 1017.6 1017.4 0.0
29/06:00pm 19.8 18.0 12.1 61 4.3 E 13 19 7 10 1017.2 1017.0 0.0
29/05:30pm 20.2 17.9 11.9 59 4.6 ENE 15 19 8 10 1017.2 1017.0 0.0
29/05:00pm 21.1 19.5 12.8 59 4.7 N 13 17 7 9 1017.2 1017.0 0.0
29/04:30pm 21.2 19.4 12.1 56 5.1 N 13 19 7 10 1017.4 1017.2 0.0
29/04:00pm 22.2 19.3 12.2 53 5.7 NNE 19 24 10 13 1017.5 1017.3 0.0
29/03:30pm 23.1 21.6 13.0 53 5.8 N 13 22 7 12 1017.6 1017.4 0.0
29/03:00pm 22.7 21.4 11.4 49 6.3 NNE 9 19 5 10 1017.9 1017.7 0.0
29/02:30pm 22.3 20.7 11.4 50 6.1 NNE 11 17 6 9 1018.3 1018.1 0.0
29/02:00pm 22.2 20.6 11.6 51 5.9 N 11 20 6 11 1018.4 1018.2 0.0
29/01:30pm 21.4 19.9 10.6 50 5.9 NNE 9 19 5 10 1019.0 1018.8 0.0
29/01:00pm 21.2 19.6 10.1 49 6.0 N 9 22 5 12 1019.2 1019.0 0.0
29/12:30pm 21.1 20.9 10.6 51 5.7 W 2 9 1 5 1019.5 1019.3 0.0
29/12:00pm 19.7 17.9 9.3 51 5.5 NNW 9 13 5 7 1019.8 1019.6 0.0
29/11:30am 19.7 18.2 9.0 50 5.6 N 7 11 4 6 1020.5 1020.3 0.0
29/11:00am 18.8 18.0 8.2 50 5.5 ENE 2 9 1 5 1020.8 1020.6 0.0
29/10:35am 18.4 16.8 7.8 50 5.4 SE 6 11 3 6 1020.8 1020.6 0.0
29/10:30am 18.7 17.0 8.4 51 5.3 SE 7 11 4 6 1020.9 1020.7 0.0
29/10:16am 18.7 18.1 8.9 53 5.1 NNE 2 13 1 7 1021.1 1020.9 0.0
29/10:00am 18.4 17.3 8.4 52 5.2 E 4 9 2 5 1021.2 1021.0 0.0
29/09:30am 17.6 16.0 8.2 54 4.8 SSW 6 11 3 6 1021.3 1021.1 0.0
29/09:00am 17.3 15.8 9.2 59 4.2 S 7 13 4 7 1021.4 1021.2 0.0
29/08:30am 16.2 16.1 10.9 71 2.8 WSW 2 6 1 3 1021.6 1021.4 0.0
29/08:00am 15.0 15.5 11.6 80 1.8 CALM 0 0 0 0 1021.3 1021.1 0.0
29/07:30am 14.2 14.8 11.9 86 1.2 CALM 0 0 0 0 1021.3 1021.1 0.0
29/07:00am 13.5 14.1 11.9 90 0.9 CALM 0 0 0 0 1021.2 1021.0 0.0
29/06:30am 13.0 13.4 11.4 90 0.8 CALM 0 0 0 0 1020.9 1020.7 0.0
29/06:00am 12.7 11.9 11.1 90 0.8 SSE 6 7 3 4 1020.7 1020.5 0.0
29/05:30am 12.8 13.2 11.4 91 0.7 CALM 0 0 0 0 1020.5 1020.3 0.0
29/05:00am 12.9 12.1 11.1 89 0.9 SE 6 6 3 3 1020.5 1020.3 0.0
29/04:30am 12.9 13.2 11.0 88 1.0 CALM 0 0 0 0 1020.4 1020.2 0.0
29/04:00am 13.1 13.4 11.0 87 1.1 CALM 0 0 0 0 1020.5 1020.3 0.0
29/03:30am 13.1 13.4 10.8 86 1.2 CALM 0 0 0 0 1020.6 1020.4 0.0
29/03:00am 13.1 13.5 11.2 88 1.0 CALM 0 0 0 0 1020.5 1020.3 0.0
29/02:30am 13.0 13.5 11.6 91 0.7 CALM 0 0 0 0 1020.8 1020.6 0.0
29/02:00am 13.1 13.8 12.2 94 0.5 CALM 0 0 0 0 1021.2 1021.0 0.0
29/01:30am 12.7 13.2 11.6 93 0.6 CALM 0 0 0 0 1021.3 1021.1 0.0
29/01:00am 13.3 13.8 11.5 89 1.0 CALM 0 0 0 0 1021.5 1021.3 0.0
29/12:30am 13.7 12.9 10.9 83 1.5 WSW 6 7 3 4 1021.6 1021.4 0.0
29/12:00am 14.2 14.6 11.4 83 1.5 CALM 0 0 0 0 1022.0 1021.8 0.0
 
Date/Time
EDT
Temp
°C
App
Temp
°C
Dew
Point
°C
Rel
Hum
%
Delta-T
°C
Wind Press
QNH
hPa
Press
MSL
hPa
Rain since
9am
mm
Dir  Spd
km/h
Gust
km/h
Spd
kts
Gust
kts
28/11:30pm 14.1 14.7 11.8 86 1.2 CALM 0 0 0 0 1022.5 1022.3 0.0
28/11:00pm 14.0 14.2 10.6 80 1.8 CALM 0 0 0 0 1022.7 1022.5 0.0
28/10:30pm 14.3 13.1 10.3 77 2.1 SSW 7 9 4 5 1022.5 1022.3 0.0
28/10:00pm 14.6 14.7 10.2 75 2.3 CALM 0 0 0 0 1022.7 1022.5 0.0
28/09:30pm 14.8 13.8 10.4 75 2.3 WSW 6 7 3 4 1022.9 1022.7 0.0
28/09:00pm 14.9 14.9 9.9 72 2.6 CALM 0 0 0 0 1022.5 1022.3 0.0
28/08:30pm 15.1 13.7 9.7 70 2.8 SSW 7 9 4 5 1022.3 1022.1 0.0
28/08:00pm 15.3 13.6 9.7 69 2.9 SSW 9 11 5 6 1022.1 1021.9 0.0
28/07:30pm 15.8 13.6 9.5 66 3.3 S 11 17 6 9 1022.0 1021.8 0.0
28/07:00pm 16.1 13.5 9.5 65 3.4 SSE 13 20 7 11 1021.8 1021.6 0.0
28/06:30pm 16.4 13.4 9.3 63 3.7 SSE 15 20 8 11 1021.6 1021.4 0.0
28/06:00pm 16.5 13.6 9.7 64 3.6 SE 15 20 8 11 1021.4 1021.2 0.0
28/05:30pm 16.7 13.1 9.9 64 3.6 SSE 19 28 10 15 1021.1 1020.9 0.0
28/05:00pm 16.7 13.1 9.9 64 3.6 SSE 19 30 10 16 1021.0 1020.8 0.0
28/04:30pm 17.0 14.0 10.6 66 3.4 SSE 17 24 9 13 1021.3 1021.1 0.0
28/04:00pm 17.8 14.8 10.7 63 3.8 SSE 17 24 9 13 1021.1 1020.9 0.0
28/03:30pm 17.7 14.2 10.3 62 4.0 SSE 19 30 10 16 1021.2 1021.0 0.0
28/03:00pm 17.8 14.3 10.2 61 4.0 SSE 19 24 10 13 1021.3 1021.1 0.0
28/02:30pm 18.2 15.1 10.3 60 4.2 SSE 17 24 9 13 1021.4 1021.2 0.0
28/02:00pm 18.4 15.2 10.0 58 4.5 SSE 17 24 9 13 1021.5 1021.3 0.0
28/01:30pm 17.9 15.0 9.8 59 4.3 SSE 15 24 8 13 1021.8 1021.6 0.0
28/01:00pm 18.8 15.6 10.1 57 4.6 SE 17 24 9 13 1022.0 1021.8 0.0
28/12:30pm 17.8 15.2 10.7 63 3.8 SSE 15 24 8 13 1022.6 1022.4 0.0
28/12:00pm 17.8 15.1 10.2 61 4.0 SSW 15 22 8 12 1022.6 1022.4 0.0
28/11:30am 17.9 15.9 10.0 60 4.2 SSW 11 17 6 9 1022.8 1022.6 0.0
28/11:00am 17.7 15.6 9.6 59 4.3 SSE 11 20 6 11 1023.0 1022.8 0.0
28/10:51am 17.8 15.4 9.9 60 4.2 SSE 13 19 7 10 1023.0 1022.8 0.0
28/10:32am 17.9 15.0 9.5 58 4.4 S 15 22 8 12 1023.1 1022.9 0.0
28/10:30am 17.9 15.0 9.5 58 4.4 S 15 22 8 12 1023.1 1022.9 0.0
28/10:00am 18.3 15.3 10.7 61 4.1 S 17 24 9 13 1023.0 1022.8 0.0
28/09:30am 17.1 14.6 10.9 67 3.3 S 15 20 8 11 1023.2 1023.0 0.0
28/09:00am 17.1 13.3 9.8 62 3.8 S 20 28 11 15 1023.2 1023.0 0.4
28/08:30am 17.0 13.8 9.9 63 3.7 S 17 28 9 15 1023.1 1022.9 0.4
28/08:00am 16.2 13.8 10.1 67 3.2 SSW 13 24 7 13 1023.4 1023.2 0.4
28/07:30am 15.5 13.0 9.6 68 3.1 SSW 13 20 7 11 1023.2 1023.0 0.4
28/07:00am 15.4 13.4 10.0 70 2.8 SW 11 17 6 9 1022.9 1022.7 0.4
28/06:30am 14.6 12.9 10.0 74 2.4 SW 9 15 5 8 1022.4 1022.2 0.4
28/06:00am 14.1 11.9 9.5 74 2.4 SW 11 15 6 8 1022.2 1022.0 0.4
28/05:30am 13.9 12.2 9.9 77 2.1 SW 9 17 5 9 1022.0 1021.8 0.4
28/05:00am 14.2 12.0 9.4 73 2.5 SW 11 15 6 8 1021.7 1021.5 0.4
28/04:30am 14.0 12.2 9.4 74 2.4 SW 9 13 5 7 1021.4 1021.2 0.4
28/04:00am 14.2 12.3 9.2 72 2.5 SW 9 15 5 8 1021.2 1021.0 0.4
28/03:30am 14.4 12.6 9.4 72 2.6 SW 9 13 5 7 1021.1 1020.9 0.4
28/03:00am 14.4 12.7 9.8 74 2.4 SSW 9 13 5 7 1021.2 1021.0 0.4
28/02:30am 14.2 12.5 10.0 76 2.2 SSW 9 13 5 7 1021.3 1021.1 0.4
28/02:00am 14.1 12.8 9.9 76 2.2 SW 7 11 4 6 1021.5 1021.3 0.4
28/01:30am 14.1 12.4 9.9 76 2.2 SW 9 13 5 7 1021.5 1021.3 0.4
28/01:00am 14.2 12.5 10.0 76 2.2 SW 9 11 5 6 1021.8 1021.6 0.4
28/12:30am 14.4 12.3 9.8 74 2.4 SSW 11 17 6 9 1021.9 1021.7 0.4
28/12:00am 14.2 12.1 9.8 75 2.3 SSW 11 15 6 8 1021.9 1021.7 0.4
 
Date/Time
EDT
Temp
°C
App
Temp
°C
Dew
Point
°C
Rel
Hum
%
Delta-T
°C
Wind Press
QNH
hPa
Press
MSL
hPa
Rain since
9am
mm
Dir  Spd
km/h
Gust
km/h
Spd
kts
Gust
kts
27/11:30pm 14.1 12.5 10.1 77 2.1 SSW 9 11 5 6 1022.1 1021.9 0.4
27/11:00pm 14.3 11.6 10.3 77 2.1 SSW 15 24 8 13 1022.3 1022.1 0.4
27/10:30pm 14.4 12.9 10.4 77 2.1 SSW 9 17 5 9 1022.5 1022.3 0.4
27/10:00pm 14.6 13.0 10.2 75 2.3 SSW 9 13 5 7 1022.5 1022.3 0.4
27/09:30pm 14.7 11.5 10.1 74 2.4 S 17 24 9 13 1022.5 1022.3 0.4
27/09:00pm 14.9 11.7 9.9 72 2.6 SSW 17 24 9 13 1022.2 1022.0 0.4
27/08:30pm 14.8 11.9 9.8 72 2.6 SSW 15 20 8 11 1021.9 1021.7 0.4
27/08:00pm 15.1 12.7 9.9 71 2.7 S 13 20 7 11 1021.8 1021.6 0.4
27/07:30pm 15.4 12.9 9.7 69 3.0 S 13 24 7 13 1021.5 1021.3 0.4
27/07:00pm 15.7 12.4 9.6 67 3.2 S 17 24 9 13 1021.1 1020.9 0.4
27/06:30pm 15.5 12.9 10.7 73 2.6 S 15 30 8 16 1020.8 1020.6 0.4
27/06:00pm 15.8 12.1 10.1 69 3.0 S 20 32 11 17 1020.4 1020.2 0.4
27/05:30pm 16.2 12.7 10.9 71 2.8 S 20 32 11 17 1020.3 1020.1 0.4
27/05:00pm 15.7 12.3 11.1 74 2.5 S 20 32 11 17 1020.4 1020.2 0.4
27/04:30pm 15.6 12.1 10.8 73 2.6 S 20 32 11 17 1020.1 1019.9 0.4
27/04:00pm 16.7 12.5 9.9 64 3.6 S 22 32 12 17 1019.7 1019.5 0.4
27/03:30pm 17.0 13.1 10.8 67 3.3 S 22 35 12 19 1019.8 1019.6 0.4
27/03:00pm 17.3 13.7 10.4 64 3.7 SSE 20 32 11 17 1019.5 1019.3 0.4
27/02:30pm 17.1 12.8 10.9 67 3.3 SSE 24 35 13 19 1019.5 1019.3 0.4
27/02:00pm 15.4 11.9 12.2 81 1.7 S 22 32 12 17 1019.7 1019.5 0.4

Latest Capital City Observations: Canberra | Sydney | Melbourne | Brisbane | Adelaide | Perth | Hobart | Darwin

Other formats

Comma delimited format used in spreadsheet applications
http://www.bom.gov.au/fwo/IDN60901/IDN60901.94755.axf

JavaScript Object Notation format (JSON) in row-major order
http://www.bom.gov.au/fwo/IDN60901/IDN60901.94755.json

Data quality

Most of these data are generated automatically and are frequently updated. Quality checks on data are not normally performed. It is possible for incorrect values to appear. Refer to information at About Latest Weather Observations and please check the disclaimer before using these data.